sensor_id;sensor_type;location;lat;lon;timestamp;temperature;humidity
53422;DHT22;39319;52.944;5.928;2023-02-28T00:01:31;7.00;97.70
53422;DHT22;39319;52.944;5.928;2023-02-28T00:04:00;6.90;97.70
53422;DHT22;39319;52.944;5.928;2023-02-28T00:06:26;7.00;97.70
53422;DHT22;39319;52.944;5.928;2023-02-28T00:08:52;7.00;97.60
53422;DHT22;39319;52.944;5.928;2023-02-28T00:11:18;7.10;98.00
53422;DHT22;39319;52.944;5.928;2023-02-28T00:13:45;7.00;97.70
53422;DHT22;39319;52.944;5.928;2023-02-28T00:16:18;6.70;97.70
53422;DHT22;39319;52.944;5.928;2023-02-28T00:18:44;7.00;97.70
53422;DHT22;39319;52.944;5.928;2023-02-28T00:21:13;7.00;97.70
53422;DHT22;39319;52.944;5.928;2023-02-28T00:23:39;6.90;97.70
53422;DHT22;39319;52.944;5.928;2023-02-28T00:26:05;7.10;97.90
53422;DHT22;39319;52.944;5.928;2023-02-28T00:28:31;6.90;97.70
53422;DHT22;39319;52.944;5.928;2023-02-28T00:30:57;6.90;97.80
53422;DHT22;39319;52.944;5.928;2023-02-28T00:33:23;7.00;97.90
53422;DHT22;39319;52.944;5.928;2023-02-28T00:35:49;7.00;97.80
53422;DHT22;39319;52.944;5.928;2023-02-28T00:38:15;7.00;97.80
53422;DHT22;39319;52.944;5.928;2023-02-28T00:40:41;6.80;97.70
53422;DHT22;39319;52.944;5.928;2023-02-28T00:43:06;6.90;97.90
53422;DHT22;39319;52.944;5.928;2023-02-28T00:45:32;6.90;97.90
53422;DHT22;39319;52.944;5.928;2023-02-28T00:47:58;6.90;98.00
53422;DHT22;39319;52.944;5.928;2023-02-28T00:50:24;6.90;97.90
53422;DHT22;39319;52.944;5.928;2023-02-28T00:52:50;6.90;97.90
53422;DHT22;39319;52.944;5.928;2023-02-28T00:55:15;6.80;97.90
53422;DHT22;39319;52.944;5.928;2023-02-28T00:57:41;6.90;97.90
53422;DHT22;39319;52.944;5.928;2023-02-28T01:00:07;7.00;98.00
53422;DHT22;39319;52.944;5.928;2023-02-28T01:02:33;6.80;97.80
53422;DHT22;39319;52.944;5.928;2023-02-28T01:04:59;6.90;97.90
53422;DHT22;39319;52.944;5.928;2023-02-28T01:07:25;6.80;98.00
53422;DHT22;39319;52.944;5.928;2023-02-28T01:09:50;6.60;98.00
53422;DHT22;39319;52.944;5.928;2023-02-28T01:12:16;6.80;98.10
53422;DHT22;39319;52.944;5.928;2023-02-28T01:14:42;6.80;98.30
53422;DHT22;39319;52.944;5.928;2023-02-28T01:17:08;6.80;98.30
53422;DHT22;39319;52.944;5.928;2023-02-28T01:19:34;6.90;98.30
53422;DHT22;39319;52.944;5.928;2023-02-28T01:22:05;7.00;98.30
53422;DHT22;39319;52.944;5.928;2023-02-28T01:24:31;6.90;98.30
53422;DHT22;39319;52.944;5.928;2023-02-28T01:26:58;6.90;98.30
53422;DHT22;39319;52.944;5.928;2023-02-28T01:29:24;7.20;98.30
53422;DHT22;39319;52.944;5.928;2023-02-28T01:31:49;6.80;98.20
53422;DHT22;39319;52.944;5.928;2023-02-28T01:34:16;6.90;98.30
53422;DHT22;39319;52.944;5.928;2023-02-28T01:36:44;7.10;98.40
53422;DHT22;39319;52.944;5.928;2023-02-28T01:39:10;6.90;98.40
53422;DHT22;39319;52.944;5.928;2023-02-28T01:41:35;6.90;98.40
53422;DHT22;39319;52.944;5.928;2023-02-28T01:44:05;6.90;98.40
53422;DHT22;39319;52.944;5.928;2023-02-28T01:46:33;7.80;98.60
53422;DHT22;39319;52.944;5.928;2023-02-28T01:49:17;6.90;98.50
53422;DHT22;39319;52.944;5.928;2023-02-28T01:54:14;7.00;98.40
53422;DHT22;39319;52.944;5.928;2023-02-28T01:56:51;6.90;98.40
53422;DHT22;39319;52.944;5.928;2023-02-28T02:02:12;6.80;98.40
53422;DHT22;39319;52.944;5.928;2023-02-28T02:04:55;6.70;98.50
53422;DHT22;39319;52.944;5.928;2023-02-28T02:07:21;6.90;98.60
53422;DHT22;39319;52.944;5.928;2023-02-28T02:10:00;6.70;98.60
53422;DHT22;39319;52.944;5.928;2023-02-28T02:15:49;6.70;98.50
53422;DHT22;39319;52.944;5.928;2023-02-28T02:21:35;6.70;98.60
53422;DHT22;39319;52.944;5.928;2023-02-28T02:33:33;7.80;99.20
53422;DHT22;39319;52.944;5.928;2023-02-28T02:35:53;6.80;98.90
53422;DHT22;39319;52.944;5.928;2023-02-28T02:41:14;6.80;99.10
53422;DHT22;39319;52.944;5.928;2023-02-28T02:43:48;6.90;99.00
53422;DHT22;39319;52.944;5.928;2023-02-28T02:46:32;6.80;99.20
53422;DHT22;39319;52.944;5.928;2023-02-28T02:49:00;6.90;99.30
53422;DHT22;39319;52.944;5.928;2023-02-28T02:51:30;6.80;99.40
53422;DHT22;39319;52.944;5.928;2023-02-28T02:55:00;6.80;99.40
53422;DHT22;39319;52.944;5.928;2023-02-28T02:56:59;6.90;99.40
53422;DHT22;39319;52.944;5.928;2023-02-28T02:59:26;6.80;99.60
53422;DHT22;39319;52.944;5.928;2023-02-28T03:01:56;6.80;99.70
53422;DHT22;39319;52.944;5.928;2023-02-28T03:04:25;6.90;99.70
53422;DHT22;39319;52.944;5.928;2023-02-28T03:06:53;7.10;99.90
53422;DHT22;39319;52.944;5.928;2023-02-28T03:09:25;6.80;99.70
53422;DHT22;39319;52.944;5.928;2023-02-28T03:11:52;7.00;99.90
53422;DHT22;39319;52.944;5.928;2023-02-28T03:17:13;7.10;99.90
53422;DHT22;39319;52.944;5.928;2023-02-28T03:25:35;7.20;99.90
53422;DHT22;39319;52.944;5.928;2023-02-28T03:33:39;6.90;99.90
53422;DHT22;39319;52.944;5.928;2023-02-28T03:36:16;6.90;99.90
53422;DHT22;39319;52.944;5.928;2023-02-28T03:38:54;6.90;99.90
53422;DHT22;39319;52.944;5.928;2023-02-28T03:41:43;6.90;99.90
53422;DHT22;39319;52.944;5.928;2023-02-28T03:44:25;7.00;99.90
53422;DHT22;39319;52.944;5.928;2023-02-28T03:47:04;6.90;99.90
53422;DHT22;39319;52.944;5.928;2023-02-28T03:52:19;6.80;99.90
53422;DHT22;39319;52.944;5.928;2023-02-28T03:54:52;7.00;99.90
53422;DHT22;39319;52.944;5.928;2023-02-28T03:57:30;6.80;99.90
53422;DHT22;39319;52.944;5.928;2023-02-28T04:00:00;7.00;99.90
53422;DHT22;39319;52.944;5.928;2023-02-28T04:02:32;6.80;99.90
53422;DHT22;39319;52.944;5.928;2023-02-28T04:04:57;8.20;99.90
53422;DHT22;39319;52.944;5.928;2023-02-28T04:07:25;6.80;99.90
53422;DHT22;39319;52.944;5.928;2023-02-28T04:09:54;7.00;99.90
53422;DHT22;39319;52.944;5.928;2023-02-28T04:12:19;6.70;99.90
53422;DHT22;39319;52.944;5.928;2023-02-28T04:14:46;6.90;99.90
53422;DHT22;39319;52.944;5.928;2023-02-28T04:17:12;6.80;99.90
53422;DHT22;39319;52.944;5.928;2023-02-28T04:19:37;6.90;99.90
53422;DHT22;39319;52.944;5.928;2023-02-28T04:22:03;6.80;99.90
53422;DHT22;39319;52.944;5.928;2023-02-28T04:24:29;6.90;99.90
53422;DHT22;39319;52.944;5.928;2023-02-28T04:26:56;6.90;99.90
53422;DHT22;39319;52.944;5.928;2023-02-28T04:29:30;6.70;99.90
53422;DHT22;39319;52.944;5.928;2023-02-28T04:32:00;7.40;99.90
53422;DHT22;39319;52.944;5.928;2023-02-28T04:34:28;6.80;99.90
53422;DHT22;39319;52.944;5.928;2023-02-28T04:36:54;6.70;99.90
53422;DHT22;39319;52.944;5.928;2023-02-28T04:39:21;6.60;99.90
53422;DHT22;39319;52.944;5.928;2023-02-28T04:41:47;6.60;99.90
53422;DHT22;39319;52.944;5.928;2023-02-28T04:44:14;6.70;99.90
53422;DHT22;39319;52.944;5.928;2023-02-28T04:46:40;6.50;99.90
53422;DHT22;39319;52.944;5.928;2023-02-28T04:49:05;6.60;99.90
53422;DHT22;39319;52.944;5.928;2023-02-28T04:51:31;6.60;99.90
53422;DHT22;39319;52.944;5.928;2023-02-28T04:53:57;6.40;99.90
53422;DHT22;39319;52.944;5.928;2023-02-28T04:56:22;6.50;99.90
53422;DHT22;39319;52.944;5.928;2023-02-28T04:58:49;6.70;99.90
53422;DHT22;39319;52.944;5.928;2023-02-28T05:01:23;6.40;99.90
53422;DHT22;39319;52.944;5.928;2023-02-28T05:03:50;6.50;99.90
53422;DHT22;39319;52.944;5.928;2023-02-28T05:06:17;6.50;99.90
53422;DHT22;39319;52.944;5.928;2023-02-28T05:08:43;6.40;99.90
53422;DHT22;39319;52.944;5.928;2023-02-28T05:11:17;6.40;99.90
53422;DHT22;39319;52.944;5.928;2023-02-28T05:13:44;7.80;99.90
53422;DHT22;39319;52.944;5.928;2023-02-28T05:16:11;6.90;99.90
53422;DHT22;39319;52.944;5.928;2023-02-28T05:18:37;6.10;99.90
53422;DHT22;39319;52.944;5.928;2023-02-28T05:21:03;6.40;99.90
53422;DHT22;39319;52.944;5.928;2023-02-28T05:23:29;6.40;99.90
53422;DHT22;39319;52.944;5.928;2023-02-28T05:25:55;6.10;99.90
53422;DHT22;39319;52.944;5.928;2023-02-28T05:28:23;6.20;99.90
53422;DHT22;39319;52.944;5.928;2023-02-28T05:30:49;5.90;99.90
53422;DHT22;39319;52.944;5.928;2023-02-28T05:33:15;5.80;99.90
53422;DHT22;39319;52.944;5.928;2023-02-28T05:35:41;6.00;99.90
53422;DHT22;39319;52.944;5.928;2023-02-28T05:38:08;5.80;99.90
53422;DHT22;39319;52.944;5.928;2023-02-28T05:40:34;5.80;99.90
53422;DHT22;39319;52.944;5.928;2023-02-28T05:42:59;5.90;99.90
53422;DHT22;39319;52.944;5.928;2023-02-28T05:45:25;5.90;99.90
53422;DHT22;39319;52.944;5.928;2023-02-28T05:47:55;5.80;99.90
53422;DHT22;39319;52.944;5.928;2023-02-28T05:50:21;5.70;99.90
53422;DHT22;39319;52.944;5.928;2023-02-28T05:52:53;5.80;99.90
53422;DHT22;39319;52.944;5.928;2023-02-28T05:55:18;5.80;99.90
53422;DHT22;39319;52.944;5.928;2023-02-28T05:57:44;5.80;99.90
53422;DHT22;39319;52.944;5.928;2023-02-28T06:00:10;5.70;99.90
53422;DHT22;39319;52.944;5.928;2023-02-28T06:02:38;5.50;99.90
53422;DHT22;39319;52.944;5.928;2023-02-28T06:05:04;5.70;99.90
53422;DHT22;39319;52.944;5.928;2023-02-28T06:07:30;5.50;99.90
53422;DHT22;39319;52.944;5.928;2023-02-28T06:09:56;5.70;99.90
53422;DHT22;39319;52.944;5.928;2023-02-28T06:12:21;5.70;99.90
53422;DHT22;39319;52.944;5.928;2023-02-28T06:14:47;5.60;99.90
53422;DHT22;39319;52.944;5.928;2023-02-28T06:17:13;5.50;99.90
53422;DHT22;39319;52.944;5.928;2023-02-28T06:19:38;5.40;99.90
53422;DHT22;39319;52.944;5.928;2023-02-28T06:22:05;5.60;99.90
53422;DHT22;39319;52.944;5.928;2023-02-28T06:24:31;5.50;99.90
53422;DHT22;39319;52.944;5.928;2023-02-28T06:26:59;5.60;99.90
53422;DHT22;39319;52.944;5.928;2023-02-28T06:29:31;5.30;99.90
53422;DHT22;39319;52.944;5.928;2023-02-28T06:31:57;5.60;99.90
53422;DHT22;39319;52.944;5.928;2023-02-28T06:34:23;5.50;99.90
53422;DHT22;39319;52.944;5.928;2023-02-28T06:36:50;5.60;99.90
53422;DHT22;39319;52.944;5.928;2023-02-28T06:39:16;5.40;99.90
53422;DHT22;39319;52.944;5.928;2023-02-28T06:41:42;5.40;99.90
53422;DHT22;39319;52.944;5.928;2023-02-28T06:44:15;5.20;99.90
53422;DHT22;39319;52.944;5.928;2023-02-28T06:46:43;5.40;99.90
53422;DHT22;39319;52.944;5.928;2023-02-28T06:49:09;5.40;99.90
53422;DHT22;39319;52.944;5.928;2023-02-28T06:51:39;5.30;99.90
53422;DHT22;39319;52.944;5.928;2023-02-28T06:54:07;5.40;99.90
53422;DHT22;39319;52.944;5.928;2023-02-28T06:56:36;5.10;99.90
53422;DHT22;39319;52.944;5.928;2023-02-28T06:59:02;5.10;99.90
53422;DHT22;39319;52.944;5.928;2023-02-28T07:01:28;5.40;99.90
53422;DHT22;39319;52.944;5.928;2023-02-28T07:03:54;4.90;99.90
53422;DHT22;39319;52.944;5.928;2023-02-28T07:06:21;5.30;99.90
53422;DHT22;39319;52.944;5.928;2023-02-28T07:08:49;5.40;99.90
53422;DHT22;39319;52.944;5.928;2023-02-28T07:11:15;6.10;99.90
53422;DHT22;39319;52.944;5.928;2023-02-28T07:13:41;5.50;99.90
53422;DHT22;39319;52.944;5.928;2023-02-28T07:16:10;5.50;99.90
53422;DHT22;39319;52.944;5.928;2023-02-28T07:18:36;5.20;99.70
53422;DHT22;39319;52.944;5.928;2023-02-28T07:21:04;5.40;99.90
53422;DHT22;39319;52.944;5.928;2023-02-28T07:23:29;7.50;99.90
53422;DHT22;39319;52.944;5.928;2023-02-28T07:25:55;5.60;99.90
53422;DHT22;39319;52.944;5.928;2023-02-28T07:28:21;5.90;99.90
53422;DHT22;39319;52.944;5.928;2023-02-28T07:30:47;5.40;99.90
53422;DHT22;39319;52.944;5.928;2023-02-28T07:33:13;5.50;99.90
53422;DHT22;39319;52.944;5.928;2023-02-28T07:35:42;5.60;99.80
53422;DHT22;39319;52.944;5.928;2023-02-28T07:38:07;5.30;99.70
53422;DHT22;39319;52.944;5.928;2023-02-28T07:40:34;5.80;99.90
53422;DHT22;39319;52.944;5.928;2023-02-28T07:43:00;5.60;99.90
53422;DHT22;39319;52.944;5.928;2023-02-28T07:45:27;5.30;99.90
53422;DHT22;39319;52.944;5.928;2023-02-28T07:47:54;5.60;99.90
53422;DHT22;39319;52.944;5.928;2023-02-28T07:50:20;5.70;99.90
53422;DHT22;39319;52.944;5.928;2023-02-28T07:52:46;5.40;99.90
53422;DHT22;39319;52.944;5.928;2023-02-28T07:55:12;5.50;99.90
53422;DHT22;39319;52.944;5.928;2023-02-28T07:57:39;6.10;99.90
53422;DHT22;39319;52.944;5.928;2023-02-28T08:00:07;5.70;99.90
53422;DHT22;39319;52.944;5.928;2023-02-28T08:02:34;5.60;99.90
53422;DHT22;39319;52.944;5.928;2023-02-28T08:05:00;5.50;99.90
53422;DHT22;39319;52.944;5.928;2023-02-28T08:07:26;5.40;99.90
53422;DHT22;39319;52.944;5.928;2023-02-28T08:09:52;5.50;99.90
53422;DHT22;39319;52.944;5.928;2023-02-28T08:12:18;5.40;99.90
53422;DHT22;39319;52.944;5.928;2023-02-28T08:14:43;5.70;99.90
53422;DHT22;39319;52.944;5.928;2023-02-28T08:17:10;5.70;99.90
53422;DHT22;39319;52.944;5.928;2023-02-28T08:19:36;5.50;99.90
53422;DHT22;39319;52.944;5.928;2023-02-28T08:22:02;5.60;99.90
53422;DHT22;39319;52.944;5.928;2023-02-28T08:24:28;5.70;99.90
53422;DHT22;39319;52.944;5.928;2023-02-28T08:26:54;5.50;99.90
53422;DHT22;39319;52.944;5.928;2023-02-28T08:29:20;5.60;99.90
53422;DHT22;39319;52.944;5.928;2023-02-28T08:31:46;5.60;99.90
53422;DHT22;39319;52.944;5.928;2023-02-28T08:34:13;5.70;99.90
53422;DHT22;39319;52.944;5.928;2023-02-28T08:36:40;5.70;99.90
53422;DHT22;39319;52.944;5.928;2023-02-28T08:39:06;5.80;99.90
53422;DHT22;39319;52.944;5.928;2023-02-28T08:41:33;5.60;99.90
53422;DHT22;39319;52.944;5.928;2023-02-28T08:43:59;5.70;99.90
53422;DHT22;39319;52.944;5.928;2023-02-28T08:46:26;5.80;99.60
53422;DHT22;39319;52.944;5.928;2023-02-28T08:48:53;5.90;99.90
53422;DHT22;39319;52.944;5.928;2023-02-28T08:51:19;5.70;99.90
53422;DHT22;39319;52.944;5.928;2023-02-28T08:53:56;5.80;99.90
53422;DHT22;39319;52.944;5.928;2023-02-28T08:56:23;6.60;99.80
53422;DHT22;39319;52.944;5.928;2023-02-28T08:58:49;5.90;99.80
53422;DHT22;39319;52.944;5.928;2023-02-28T09:01:21;5.80;99.80
53422;DHT22;39319;52.944;5.928;2023-02-28T09:03:48;6.00;99.70
53422;DHT22;39319;52.944;5.928;2023-02-28T09:06:16;5.90;99.90
53422;DHT22;39319;52.944;5.928;2023-02-28T09:08:42;5.80;99.90
53422;DHT22;39319;52.944;5.928;2023-02-28T09:11:08;6.50;99.90
53422;DHT22;39319;52.944;5.928;2023-02-28T09:13:37;6.20;99.90
53422;DHT22;39319;52.944;5.928;2023-02-28T09:16:05;6.30;99.90
53422;DHT22;39319;52.944;5.928;2023-02-28T09:18:31;6.00;99.90
53422;DHT22;39319;52.944;5.928;2023-02-28T09:20:56;6.10;99.90
53422;DHT22;39319;52.944;5.928;2023-02-28T09:23:23;6.10;99.90
53422;DHT22;39319;52.944;5.928;2023-02-28T09:25:51;6.20;99.90
53422;DHT22;39319;52.944;5.928;2023-02-28T09:28:18;6.20;99.90
53422;DHT22;39319;52.944;5.928;2023-02-28T09:30:46;6.40;99.90
53422;DHT22;39319;52.944;5.928;2023-02-28T09:33:13;5.90;99.50
53422;DHT22;39319;52.944;5.928;2023-02-28T09:35:39;5.80;99.90
53422;DHT22;39319;52.944;5.928;2023-02-28T09:38:05;5.90;99.90
53422;DHT22;39319;52.944;5.928;2023-02-28T09:40:40;6.30;99.90
53422;DHT22;39319;52.944;5.928;2023-02-28T09:43:11;6.00;99.90
53422;DHT22;39319;52.944;5.928;2023-02-28T09:45:42;6.20;99.90
53422;DHT22;39319;52.944;5.928;2023-02-28T09:48:16;6.30;99.90
53422;DHT22;39319;52.944;5.928;2023-02-28T09:50:49;6.40;99.90
53422;DHT22;39319;52.944;5.928;2023-02-28T09:53:31;6.50;99.90
53422;DHT22;39319;52.944;5.928;2023-02-28T09:56:21;6.60;99.90
53422;DHT22;39319;52.944;5.928;2023-02-28T10:02:15;6.40;99.60
53422;DHT22;39319;52.944;5.928;2023-02-28T10:04:56;6.60;99.70
53422;DHT22;39319;52.944;5.928;2023-02-28T10:10:24;6.80;99.30
53422;DHT22;39319;52.944;5.928;2023-02-28T10:12:54;6.90;99.10
53422;DHT22;39319;52.944;5.928;2023-02-28T10:15:23;7.30;98.70
53422;DHT22;39319;52.944;5.928;2023-02-28T10:17:54;7.30;99.10
53422;DHT22;39319;52.944;5.928;2023-02-28T10:20:22;7.70;98.10
53422;DHT22;39319;52.944;5.928;2023-02-28T10:23:00;7.80;97.80
53422;DHT22;39319;52.944;5.928;2023-02-28T10:25:34;7.80;97.70
53422;DHT22;39319;52.944;5.928;2023-02-28T10:28:21;7.80;97.60
53422;DHT22;39319;52.944;5.928;2023-02-28T10:30:51;8.30;96.60
53422;DHT22;39319;52.944;5.928;2023-02-28T10:33:33;8.10;96.60
53422;DHT22;39319;52.944;5.928;2023-02-28T10:36:00;8.50;96.90
53422;DHT22;39319;52.944;5.928;2023-02-28T10:38:38;8.50;96.00
53422;DHT22;39319;52.944;5.928;2023-02-28T10:41:09;8.60;95.50
53422;DHT22;39319;52.944;5.928;2023-02-28T10:43:36;9.10;95.40
53422;DHT22;39319;52.944;5.928;2023-02-28T10:48:50;9.70;95.40
53422;DHT22;39319;52.944;5.928;2023-02-28T10:51:25;10.00;93.90
53422;DHT22;39319;52.944;5.928;2023-02-28T10:53:52;10.10;93.90
53422;DHT22;39319;52.944;5.928;2023-02-28T10:56:23;10.50;92.70
53422;DHT22;39319;52.944;5.928;2023-02-28T11:01:38;11.10;91.90
53422;DHT22;39319;52.944;5.928;2023-02-28T11:04:32;11.30;90.80
53422;DHT22;39319;52.944;5.928;2023-02-28T11:07:01;11.40;88.70
53422;DHT22;39319;52.944;5.928;2023-02-28T11:09:32;11.70;87.60
53422;DHT22;39319;52.944;5.928;2023-02-28T11:11:59;11.80;87.60
53422;DHT22;39319;52.944;5.928;2023-02-28T11:14:31;11.80;85.70
53422;DHT22;39319;52.944;5.928;2023-02-28T11:17:13;12.00;90.10
53422;DHT22;39319;52.944;5.928;2023-02-28T11:19:45;12.30;84.90
53422;DHT22;39319;52.944;5.928;2023-02-28T11:22:19;12.50;82.60
53422;DHT22;39319;52.944;5.928;2023-02-28T11:24:49;12.70;83.80
53422;DHT22;39319;52.944;5.928;2023-02-28T11:29:58;12.90;80.00
53422;DHT22;39319;52.944;5.928;2023-02-28T11:32:28;13.20;80.30
53422;DHT22;39319;52.944;5.928;2023-02-28T11:37:55;13.40;77.30
53422;DHT22;39319;52.944;5.928;2023-02-28T11:40:47;13.50;83.70
53422;DHT22;39319;52.944;5.928;2023-02-28T11:51:24;13.80;79.60
53422;DHT22;39319;52.944;5.928;2023-02-28T11:56:33;13.90;75.40
53422;DHT22;39319;52.944;5.928;2023-02-28T12:05:05;14.40;73.00
53422;DHT22;39319;52.944;5.928;2023-02-28T12:17:12;14.80;73.00
53422;DHT22;39319;52.944;5.928;2023-02-28T12:22:30;15.10;71.60
53422;DHT22;39319;52.944;5.928;2023-02-28T12:27:34;15.00;72.60
53422;DHT22;39319;52.944;5.928;2023-02-28T12:30:05;15.20;73.60
53422;DHT22;39319;52.944;5.928;2023-02-28T12:32:45;15.50;73.10
53422;DHT22;39319;52.944;5.928;2023-02-28T12:35:16;15.50;71.30
53422;DHT22;39319;52.944;5.928;2023-02-28T12:40:14;15.70;72.60
53422;DHT22;39319;52.944;5.928;2023-02-28T12:42:54;15.90;69.20
53422;DHT22;39319;52.944;5.928;2023-02-28T12:46:14;16.00;69.50
53422;DHT22;39319;52.944;5.928;2023-02-28T12:48:40;15.80;67.90
53422;DHT22;39319;52.944;5.928;2023-02-28T12:51:08;15.40;68.70
53422;DHT22;39319;52.944;5.928;2023-02-28T12:56:30;15.60;68.60
53422;DHT22;39319;52.944;5.928;2023-02-28T12:59:11;15.50;67.90
53422;DHT22;39319;52.944;5.928;2023-02-28T13:10:10;14.60;65.20
53422;DHT22;39319;52.944;5.928;2023-02-28T13:12:36;14.60;67.10
53422;DHT22;39319;52.944;5.928;2023-02-28T13:15:12;14.80;70.00
53422;DHT22;39319;52.944;5.928;2023-02-28T13:17:41;15.00;68.40
53422;DHT22;39319;52.944;5.928;2023-02-28T13:20:46;15.10;67.30
53422;DHT22;39319;52.944;5.928;2023-02-28T13:26:11;14.90;71.90
53422;DHT22;39319;52.944;5.928;2023-02-28T13:29:27;15.00;68.50
53422;DHT22;39319;52.944;5.928;2023-02-28T13:34:32;14.30;68.00
53422;DHT22;39319;52.944;5.928;2023-02-28T13:55:31;13.30;72.10
53422;DHT22;39319;52.944;5.928;2023-02-28T13:58:14;12.90;69.00
53422;DHT22;39319;52.944;5.928;2023-02-28T14:09:41;13.20;69.70
53422;DHT22;39319;52.944;5.928;2023-02-28T14:11:43;13.20;70.80
53422;DHT22;39319;52.944;5.928;2023-02-28T14:16:55;13.50;74.00
53422;DHT22;39319;52.944;5.928;2023-02-28T14:19:26;13.50;70.50
53422;DHT22;39319;52.944;5.928;2023-02-28T14:27:17;13.90;69.50
53422;DHT22;39319;52.944;5.928;2023-02-28T14:32:28;13.80;67.90
53422;DHT22;39319;52.944;5.928;2023-02-28T14:37:33;13.30;69.20
53422;DHT22;39319;52.944;5.928;2023-02-28T14:40:02;13.00;69.90
53422;DHT22;39319;52.944;5.928;2023-02-28T14:42:35;12.80;70.20
53422;DHT22;39319;52.944;5.928;2023-02-28T14:45:01;12.60;70.00
53422;DHT22;39319;52.944;5.928;2023-02-28T14:47:34;12.60;71.50
53422;DHT22;39319;52.944;5.928;2023-02-28T14:50:02;12.90;73.10
53422;DHT22;39319;52.944;5.928;2023-02-28T14:52:32;13.00;72.00
53422;DHT22;39319;52.944;5.928;2023-02-28T14:55:10;13.10;71.30
53422;DHT22;39319;52.944;5.928;2023-02-28T14:57:49;13.20;69.80
53422;DHT22;39319;52.944;5.928;2023-02-28T15:00:30;13.20;69.30
53422;DHT22;39319;52.944;5.928;2023-02-28T15:02:58;13.20;69.30
53422;DHT22;39319;52.944;5.928;2023-02-28T15:10:31;13.40;70.90
53422;DHT22;39319;52.944;5.928;2023-02-28T15:13:15;13.50;71.00
53422;DHT22;39319;52.944;5.928;2023-02-28T15:15:45;13.60;71.20
53422;DHT22;39319;52.944;5.928;2023-02-28T15:18:39;13.70;70.50
53422;DHT22;39319;52.944;5.928;2023-02-28T15:21:12;13.80;69.70
53422;DHT22;39319;52.944;5.928;2023-02-28T15:23:41;13.80;70.00
53422;DHT22;39319;52.944;5.928;2023-02-28T15:26:12;13.90;70.10
53422;DHT22;39319;52.944;5.928;2023-02-28T15:28:39;14.00;71.00
53422;DHT22;39319;52.944;5.928;2023-02-28T15:32:02;14.10;69.80
53422;DHT22;39319;52.944;5.928;2023-02-28T15:34:37;14.20;68.80
53422;DHT22;39319;52.944;5.928;2023-02-28T15:40:22;14.50;66.00
53422;DHT22;39319;52.944;5.928;2023-02-28T15:45:46;14.60;66.90
53422;DHT22;39319;52.944;5.928;2023-02-28T15:48:29;14.70;66.60
53422;DHT22;39319;52.944;5.928;2023-02-28T15:53:34;14.60;65.80
53422;DHT22;39319;52.944;5.928;2023-02-28T15:56:06;14.60;66.20
53422;DHT22;39319;52.944;5.928;2023-02-28T15:58:38;14.40;66.20
53422;DHT22;39319;52.944;5.928;2023-02-28T16:01:21;14.00;67.20
53422;DHT22;39319;52.944;5.928;2023-02-28T16:03:51;13.50;68.70
53422;DHT22;39319;52.944;5.928;2023-02-28T16:06:24;13.20;70.80
53422;DHT22;39319;52.944;5.928;2023-02-28T16:08:50;12.90;71.30
53422;DHT22;39319;52.944;5.928;2023-02-28T16:11:17;12.60;70.70
53422;DHT22;39319;52.944;5.928;2023-02-28T16:13:44;12.40;72.70
53422;DHT22;39319;52.944;5.928;2023-02-28T16:16:18;12.30;73.10
53422;DHT22;39319;52.944;5.928;2023-02-28T16:18:44;12.10;72.90
53422;DHT22;39319;52.944;5.928;2023-02-28T16:21:10;11.90;74.50
53422;DHT22;39319;52.944;5.928;2023-02-28T16:23:36;11.80;75.40
53422;DHT22;39319;52.944;5.928;2023-02-28T16:26:03;11.70;74.20
53422;DHT22;39319;52.944;5.928;2023-02-28T16:28:32;11.60;74.50
53422;DHT22;39319;52.944;5.928;2023-02-28T16:31:05;11.60;75.50
53422;DHT22;39319;52.944;5.928;2023-02-28T16:33:32;11.30;76.20
53422;DHT22;39319;52.944;5.928;2023-02-28T16:36:01;11.20;74.90
53422;DHT22;39319;52.944;5.928;2023-02-28T16:38:27;11.10;75.80
53422;DHT22;39319;52.944;5.928;2023-02-28T16:40:56;11.00;75.60
53422;DHT22;39319;52.944;5.928;2023-02-28T16:43:25;11.00;76.40
53422;DHT22;39319;52.944;5.928;2023-02-28T16:45:55;10.90;76.90
53422;DHT22;39319;52.944;5.928;2023-02-28T16:48:22;10.70;77.10
53422;DHT22;39319;52.944;5.928;2023-02-28T16:50:49;10.60;78.20
53422;DHT22;39319;52.944;5.928;2023-02-28T16:53:14;10.50;78.20
53422;DHT22;39319;52.944;5.928;2023-02-28T16:55:40;10.40;78.40
53422;DHT22;39319;52.944;5.928;2023-02-28T16:58:11;10.40;78.90
53422;DHT22;39319;52.944;5.928;2023-02-28T17:00:38;10.20;79.20
53422;DHT22;39319;52.944;5.928;2023-02-28T17:03:08;10.10;79.40
53422;DHT22;39319;52.944;5.928;2023-02-28T17:05:37;10.10;79.10
53422;DHT22;39319;52.944;5.928;2023-02-28T17:08:05;10.00;79.80
53422;DHT22;39319;52.944;5.928;2023-02-28T17:10:31;9.90;79.90
53422;DHT22;39319;52.944;5.928;2023-02-28T17:12:57;9.80;80.80
53422;DHT22;39319;52.944;5.928;2023-02-28T17:15:22;9.70;80.60
53422;DHT22;39319;52.944;5.928;2023-02-28T17:17:48;9.60;80.60
53422;DHT22;39319;52.944;5.928;2023-02-28T17:20:21;9.50;80.30
53422;DHT22;39319;52.944;5.928;2023-02-28T17:22:53;9.50;81.00
53422;DHT22;39319;52.944;5.928;2023-02-28T17:25:19;9.40;81.00
53422;DHT22;39319;52.944;5.928;2023-02-28T17:27:45;9.30;81.90
53422;DHT22;39319;52.944;5.928;2023-02-28T17:32:40;9.10;82.50
53422;DHT22;39319;52.944;5.928;2023-02-28T17:35:07;8.90;82.90
53422;DHT22;39319;52.944;5.928;2023-02-28T17:37:32;8.90;83.30
53422;DHT22;39319;52.944;5.928;2023-02-28T17:39:58;8.80;82.30
53422;DHT22;39319;52.944;5.928;2023-02-28T17:42:24;8.70;83.00
53422;DHT22;39319;52.944;5.928;2023-02-28T17:44:50;8.70;83.10
53422;DHT22;39319;52.944;5.928;2023-02-28T17:47:15;8.70;83.20
53422;DHT22;39319;52.944;5.928;2023-02-28T17:49:41;8.50;83.10
53422;DHT22;39319;52.944;5.928;2023-02-28T17:52:07;8.60;83.00
53422;DHT22;39319;52.944;5.928;2023-02-28T17:54:33;8.50;84.90
53422;DHT22;39319;52.944;5.928;2023-02-28T17:56:59;8.50;83.70
53422;DHT22;39319;52.944;5.928;2023-02-28T17:59:25;8.40;84.40
53422;DHT22;39319;52.944;5.928;2023-02-28T18:02:01;8.30;84.90
53422;DHT22;39319;52.944;5.928;2023-02-28T18:04:27;8.40;84.40
53422;DHT22;39319;52.944;5.928;2023-02-28T18:06:53;8.10;84.80
53422;DHT22;39319;52.944;5.928;2023-02-28T18:09:20;8.00;84.90
53422;DHT22;39319;52.944;5.928;2023-02-28T18:11:51;7.90;84.90
53422;DHT22;39319;52.944;5.928;2023-02-28T18:14:19;7.90;85.00
53422;DHT22;39319;52.944;5.928;2023-02-28T18:16:45;7.80;85.10
53422;DHT22;39319;52.944;5.928;2023-02-28T18:19:12;7.70;85.60
53422;DHT22;39319;52.944;5.928;2023-02-28T18:21:49;7.70;85.80
53422;DHT22;39319;52.944;5.928;2023-02-28T18:24:16;7.60;86.00
53422;DHT22;39319;52.944;5.928;2023-02-28T18:26:42;7.50;86.00
53422;DHT22;39319;52.944;5.928;2023-02-28T18:29:17;7.50;86.30
53422;DHT22;39319;52.944;5.928;2023-02-28T18:31:43;7.30;86.60
53422;DHT22;39319;52.944;5.928;2023-02-28T18:34:09;7.50;86.80
53422;DHT22;39319;52.944;5.928;2023-02-28T18:36:35;7.30;87.00
53422;DHT22;39319;52.944;5.928;2023-02-28T18:39:00;7.20;87.00
53422;DHT22;39319;52.944;5.928;2023-02-28T18:41:26;7.20;87.30
53422;DHT22;39319;52.944;5.928;2023-02-28T18:43:55;7.30;87.70